sensor_id;sensor_type;location;lat;lon;timestamp;P1;durP1;ratioP1;P2;durP2;ratioP2
10963;SDS011;5534;48.784;9.190;2022-07-29T00:00:55;3.22;;;2.50;;
10963;SDS011;5534;48.784;9.190;2022-07-29T00:03:21;4.15;;;2.85;;
10963;SDS011;5534;48.784;9.190;2022-07-29T00:05:47;4.45;;;2.60;;
10963;SDS011;5534;48.784;9.190;2022-07-29T00:08:12;3.38;;;2.63;;
10963;SDS011;5534;48.784;9.190;2022-07-29T00:10:38;3.25;;;2.35;;
10963;SDS011;5534;48.784;9.190;2022-07-29T00:13:04;4.07;;;2.88;;
10963;SDS011;5534;48.784;9.190;2022-07-29T00:15:30;4.20;;;2.75;;
10963;SDS011;5534;48.784;9.190;2022-07-29T00:17:55;4.68;;;2.72;;
10963;SDS011;5534;48.784;9.190;2022-07-29T00:20:21;3.38;;;2.80;;
10963;SDS011;5534;48.784;9.190;2022-07-29T00:22:47;3.85;;;2.88;;
10963;SDS011;5534;48.784;9.190;2022-07-29T00:25:13;4.35;;;3.50;;
10963;SDS011;5534;48.784;9.190;2022-07-29T00:27:39;4.10;;;2.88;;
10963;SDS011;5534;48.784;9.190;2022-07-29T00:30:05;3.40;;;3.05;;
10963;SDS011;5534;48.784;9.190;2022-07-29T00:32:32;4.68;;;3.42;;
10963;SDS011;5534;48.784;9.190;2022-07-29T00:35:01;6.57;;;3.15;;
10963;SDS011;5534;48.784;9.190;2022-07-29T00:37:46;3.60;;;3.00;;
10963;SDS011;5534;48.784;9.190;2022-07-29T00:40:12;5.53;;;3.10;;
10963;SDS011;5534;48.784;9.190;2022-07-29T00:42:44;3.38;;;2.83;;
10963;SDS011;5534;48.784;9.190;2022-07-29T00:45:15;3.80;;;2.78;;
10963;SDS011;5534;48.784;9.190;2022-07-29T00:47:44;3.40;;;2.88;;
10963;SDS011;5534;48.784;9.190;2022-07-29T00:50:12;4.00;;;2.88;;
10963;SDS011;5534;48.784;9.190;2022-07-29T00:52:39;3.97;;;2.78;;
10963;SDS011;5534;48.784;9.190;2022-07-29T00:55:07;8.75;;;3.55;;
10963;SDS011;5534;48.784;9.190;2022-07-29T00:57:34;4.40;;;3.45;;
10963;SDS011;5534;48.784;9.190;2022-07-29T01:00:01;3.17;;;2.88;;
10963;SDS011;5534;48.784;9.190;2022-07-29T01:02:30;3.47;;;2.90;;
10963;SDS011;5534;48.784;9.190;2022-07-29T01:04:56;5.13;;;3.10;;
10963;SDS011;5534;48.784;9.190;2022-07-29T01:07:23;4.75;;;2.67;;
10963;SDS011;5534;48.784;9.190;2022-07-29T01:09:50;4.38;;;3.22;;
10963;SDS011;5534;48.784;9.190;2022-07-29T01:12:23;6.28;;;3.30;;
10963;SDS011;5534;48.784;9.190;2022-07-29T01:14:50;3.95;;;2.80;;
10963;SDS011;5534;48.784;9.190;2022-07-29T01:17:24;2.78;;;2.58;;
10963;SDS011;5534;48.784;9.190;2022-07-29T01:25:37;5.00;;;2.67;;
10963;SDS011;5534;48.784;9.190;2022-07-29T01:31:31;3.45;;;2.50;;
10963;SDS011;5534;48.784;9.190;2022-07-29T01:34:12;4.75;;;2.42;;
10963;SDS011;5534;48.784;9.190;2022-07-29T01:36:47;9.05;;;3.22;;
10963;SDS011;5534;48.784;9.190;2022-07-29T01:39:31;4.70;;;2.92;;
10963;SDS011;5534;48.784;9.190;2022-07-29T01:44:37;3.97;;;3.08;;
10963;SDS011;5534;48.784;9.190;2022-07-29T01:47:11;5.47;;;3.00;;
10963;SDS011;5534;48.784;9.190;2022-07-29T01:49:43;3.45;;;2.70;;
10963;SDS011;5534;48.784;9.190;2022-07-29T01:52:16;4.78;;;2.83;;
10963;SDS011;5534;48.784;9.190;2022-07-29T01:54:57;4.50;;;2.65;;
10963;SDS011;5534;48.784;9.190;2022-07-29T01:57:28;3.05;;;2.75;;
10963;SDS011;5534;48.784;9.190;2022-07-29T01:59:57;4.30;;;2.95;;
10963;SDS011;5534;48.784;9.190;2022-07-29T02:02:25;8.80;;;2.85;;
10963;SDS011;5534;48.784;9.190;2022-07-29T02:04:53;4.22;;;3.13;;
10963;SDS011;5534;48.784;9.190;2022-07-29T02:07:21;3.83;;;2.70;;
10963;SDS011;5534;48.784;9.190;2022-07-29T02:09:50;2.53;;;2.20;;
10963;SDS011;5534;48.784;9.190;2022-07-29T02:12:17;5.15;;;2.88;;
10963;SDS011;5534;48.784;9.190;2022-07-29T02:14:48;5.25;;;2.42;;
10963;SDS011;5534;48.784;9.190;2022-07-29T02:17:25;2.47;;;2.28;;
10963;SDS011;5534;48.784;9.190;2022-07-29T02:19:55;2.60;;;2.40;;
10963;SDS011;5534;48.784;9.190;2022-07-29T02:22:24;3.60;;;2.60;;
10963;SDS011;5534;48.784;9.190;2022-07-29T02:24:51;3.58;;;2.70;;
10963;SDS011;5534;48.784;9.190;2022-07-29T02:27:18;3.25;;;2.75;;
10963;SDS011;5534;48.784;9.190;2022-07-29T02:29:46;3.67;;;2.47;;
10963;SDS011;5534;48.784;9.190;2022-07-29T02:32:14;2.95;;;2.65;;
10963;SDS011;5534;48.784;9.190;2022-07-29T02:34:41;3.92;;;2.63;;
10963;SDS011;5534;48.784;9.190;2022-07-29T02:37:09;3.10;;;2.67;;
10963;SDS011;5534;48.784;9.190;2022-07-29T02:39:36;5.35;;;2.50;;
10963;SDS011;5534;48.784;9.190;2022-07-29T02:42:05;4.43;;;3.15;;
10963;SDS011;5534;48.784;9.190;2022-07-29T02:44:33;4.97;;;2.67;;
10963;SDS011;5534;48.784;9.190;2022-07-29T02:55:03;2.70;;;2.20;;
10963;SDS011;5534;48.784;9.190;2022-07-29T02:57:44;2.45;;;2.25;;
10963;SDS011;5534;48.784;9.190;2022-07-29T03:00:14;3.05;;;2.10;;
10963;SDS011;5534;48.784;9.190;2022-07-29T03:02:43;3.38;;;2.30;;
10963;SDS011;5534;48.784;9.190;2022-07-29T03:05:18;2.92;;;2.30;;
10963;SDS011;5534;48.784;9.190;2022-07-29T03:07:47;2.88;;;2.30;;
10963;SDS011;5534;48.784;9.190;2022-07-29T03:10:17;3.75;;;2.42;;
10963;SDS011;5534;48.784;9.190;2022-07-29T03:12:43;2.65;;;2.20;;
10963;SDS011;5534;48.784;9.190;2022-07-29T03:15:10;2.83;;;2.38;;
10963;SDS011;5534;48.784;9.190;2022-07-29T03:17:37;2.47;;;2.20;;
10963;SDS011;5534;48.784;9.190;2022-07-29T03:20:04;3.05;;;2.10;;
10963;SDS011;5534;48.784;9.190;2022-07-29T03:22:32;3.22;;;2.30;;
10963;SDS011;5534;48.784;9.190;2022-07-29T03:24:58;2.90;;;1.98;;
10963;SDS011;5534;48.784;9.190;2022-07-29T03:27:33;4.38;;;2.55;;
10963;SDS011;5534;48.784;9.190;2022-07-29T03:29:59;2.47;;;2.28;;
10963;SDS011;5534;48.784;9.190;2022-07-29T03:32:25;2.92;;;2.20;;
10963;SDS011;5534;48.784;9.190;2022-07-29T03:34:51;2.65;;;2.28;;
10963;SDS011;5534;48.784;9.190;2022-07-29T03:37:16;2.20;;;1.90;;
10963;SDS011;5534;48.784;9.190;2022-07-29T03:39:42;2.55;;;2.20;;
10963;SDS011;5534;48.784;9.190;2022-07-29T03:42:10;3.47;;;2.58;;
10963;SDS011;5534;48.784;9.190;2022-07-29T03:44:39;2.80;;;2.33;;
10963;SDS011;5534;48.784;9.190;2022-07-29T03:47:07;3.53;;;2.30;;
10963;SDS011;5534;48.784;9.190;2022-07-29T03:49:36;2.50;;;2.20;;
10963;SDS011;5534;48.784;9.190;2022-07-29T03:52:04;2.72;;;2.00;;
10963;SDS011;5534;48.784;9.190;2022-07-29T03:54:31;2.35;;;2.15;;
10963;SDS011;5534;48.784;9.190;2022-07-29T03:56:58;2.42;;;1.90;;
10963;SDS011;5534;48.784;9.190;2022-07-29T03:59:26;2.58;;;2.38;;
10963;SDS011;5534;48.784;9.190;2022-07-29T04:01:52;4.97;;;2.55;;
10963;SDS011;5534;48.784;9.190;2022-07-29T04:04:21;4.03;;;1.80;;
10963;SDS011;5534;48.784;9.190;2022-07-29T04:06:47;2.22;;;2.00;;
10963;SDS011;5534;48.784;9.190;2022-07-29T04:09:13;2.58;;;2.15;;
10963;SDS011;5534;48.784;9.190;2022-07-29T04:11:39;2.75;;;2.03;;
10963;SDS011;5534;48.784;9.190;2022-07-29T04:14:05;2.33;;;2.13;;
10963;SDS011;5534;48.784;9.190;2022-07-29T04:16:31;2.60;;;2.10;;
10963;SDS011;5534;48.784;9.190;2022-07-29T04:18:57;2.30;;;2.10;;
10963;SDS011;5534;48.784;9.190;2022-07-29T04:21:23;2.50;;;2.22;;
10963;SDS011;5534;48.784;9.190;2022-07-29T04:23:49;2.75;;;2.20;;
10963;SDS011;5534;48.784;9.190;2022-07-29T04:26:19;2.85;;;1.92;;
10963;SDS011;5534;48.784;9.190;2022-07-29T04:28:45;2.50;;;2.30;;
10963;SDS011;5534;48.784;9.190;2022-07-29T04:31:12;4.15;;;1.70;;
10963;SDS011;5534;48.784;9.190;2022-07-29T04:33:38;2.63;;;1.98;;
10963;SDS011;5534;48.784;9.190;2022-07-29T04:36:04;2.08;;;1.90;;
10963;SDS011;5534;48.784;9.190;2022-07-29T04:38:30;1.90;;;1.70;;
10963;SDS011;5534;48.784;9.190;2022-07-29T04:40:56;3.42;;;2.25;;
10963;SDS011;5534;48.784;9.190;2022-07-29T04:43:22;2.10;;;1.92;;
10963;SDS011;5534;48.784;9.190;2022-07-29T04:45:47;1.88;;;1.65;;
10963;SDS011;5534;48.784;9.190;2022-07-29T04:48:13;1.95;;;1.85;;
10963;SDS011;5534;48.784;9.190;2022-07-29T04:50:39;2.72;;;2.08;;
10963;SDS011;5534;48.784;9.190;2022-07-29T04:53:05;2.40;;;2.10;;
10963;SDS011;5534;48.784;9.190;2022-07-29T04:55:32;2.45;;;1.80;;
10963;SDS011;5534;48.784;9.190;2022-07-29T04:57:58;2.55;;;1.92;;
10963;SDS011;5534;48.784;9.190;2022-07-29T05:00:24;2.80;;;2.03;;
10963;SDS011;5534;48.784;9.190;2022-07-29T05:02:50;2.83;;;2.08;;
10963;SDS011;5534;48.784;9.190;2022-07-29T05:05:15;2.40;;;2.15;;
10963;SDS011;5534;48.784;9.190;2022-07-29T05:07:41;3.17;;;2.00;;
10963;SDS011;5534;48.784;9.190;2022-07-29T05:10:07;2.55;;;2.25;;
10963;SDS011;5534;48.784;9.190;2022-07-29T05:12:33;4.85;;;2.40;;
10963;SDS011;5534;48.784;9.190;2022-07-29T05:14:59;2.63;;;2.13;;
10963;SDS011;5534;48.784;9.190;2022-07-29T05:17:25;2.65;;;2.13;;
10963;SDS011;5534;48.784;9.190;2022-07-29T05:19:51;2.05;;;1.90;;
10963;SDS011;5534;48.784;9.190;2022-07-29T05:22:20;2.83;;;2.20;;
10963;SDS011;5534;48.784;9.190;2022-07-29T05:24:46;3.63;;;1.98;;
10963;SDS011;5534;48.784;9.190;2022-07-29T05:27:12;4.03;;;1.92;;
10963;SDS011;5534;48.784;9.190;2022-07-29T05:29:38;2.50;;;1.65;;
10963;SDS011;5534;48.784;9.190;2022-07-29T05:32:04;3.70;;;2.67;;
10963;SDS011;5534;48.784;9.190;2022-07-29T05:34:30;2.45;;;2.05;;
10963;SDS011;5534;48.784;9.190;2022-07-29T05:36:56;2.35;;;1.90;;
10963;SDS011;5534;48.784;9.190;2022-07-29T05:39:22;4.25;;;3.15;;
10963;SDS011;5534;48.784;9.190;2022-07-29T05:41:48;3.88;;;2.60;;
10963;SDS011;5534;48.784;9.190;2022-07-29T05:44:14;4.22;;;3.38;;
10963;SDS011;5534;48.784;9.190;2022-07-29T05:46:40;3.42;;;2.95;;
10963;SDS011;5534;48.784;9.190;2022-07-29T05:49:06;3.80;;;2.20;;
10963;SDS011;5534;48.784;9.190;2022-07-29T05:51:35;2.45;;;2.00;;
10963;SDS011;5534;48.784;9.190;2022-07-29T05:54:01;2.60;;;2.00;;
10963;SDS011;5534;48.784;9.190;2022-07-29T05:56:27;1.63;;;1.52;;
10963;SDS011;5534;48.784;9.190;2022-07-29T05:58:53;3.17;;;1.73;;
10963;SDS011;5534;48.784;9.190;2022-07-29T06:01:19;3.33;;;1.73;;
10963;SDS011;5534;48.784;9.190;2022-07-29T06:03:45;2.50;;;1.38;;
10963;SDS011;5534;48.784;9.190;2022-07-29T06:06:11;2.08;;;1.75;;
10963;SDS011;5534;48.784;9.190;2022-07-29T06:08:37;1.92;;;1.70;;
10963;SDS011;5534;48.784;9.190;2022-07-29T06:11:04;2.38;;;1.80;;
10963;SDS011;5534;48.784;9.190;2022-07-29T06:13:30;6.40;;;4.25;;
10963;SDS011;5534;48.784;9.190;2022-07-29T06:15:56;2.30;;;2.10;;
10963;SDS011;5534;48.784;9.190;2022-07-29T06:18:22;2.65;;;1.70;;
10963;SDS011;5534;48.784;9.190;2022-07-29T06:20:51;1.88;;;1.60;;
10963;SDS011;5534;48.784;9.190;2022-07-29T06:23:18;7.30;;;4.85;;
10963;SDS011;5534;48.784;9.190;2022-07-29T06:25:45;2.28;;;2.08;;
10963;SDS011;5534;48.784;9.190;2022-07-29T06:28:11;2.83;;;1.92;;
10963;SDS011;5534;48.784;9.190;2022-07-29T06:30:37;2.13;;;1.92;;
10963;SDS011;5534;48.784;9.190;2022-07-29T06:33:03;2.65;;;1.60;;
10963;SDS011;5534;48.784;9.190;2022-07-29T06:35:29;2.47;;;1.77;;
10963;SDS011;5534;48.784;9.190;2022-07-29T06:37:55;5.13;;;4.13;;
10963;SDS011;5534;48.784;9.190;2022-07-29T06:40:21;5.07;;;4.53;;
10963;SDS011;5534;48.784;9.190;2022-07-29T06:43:05;2.33;;;2.03;;
10963;SDS011;5534;48.784;9.190;2022-07-29T06:45:34;2.50;;;2.30;;
10963;SDS011;5534;48.784;9.190;2022-07-29T06:48:00;2.58;;;2.38;;
10963;SDS011;5534;48.784;9.190;2022-07-29T06:50:26;2.55;;;2.17;;
10963;SDS011;5534;48.784;9.190;2022-07-29T06:52:51;1.63;;;1.52;;
10963;SDS011;5534;48.784;9.190;2022-07-29T06:55:17;3.00;;;1.90;;
10963;SDS011;5534;48.784;9.190;2022-07-29T06:57:44;2.83;;;2.20;;
10963;SDS011;5534;48.784;9.190;2022-07-29T07:00:11;2.60;;;2.15;;
10963;SDS011;5534;48.784;9.190;2022-07-29T07:02:38;1.98;;;1.88;;
10963;SDS011;5534;48.784;9.190;2022-07-29T07:05:06;4.88;;;2.40;;
10963;SDS011;5534;48.784;9.190;2022-07-29T07:07:34;2.22;;;1.83;;
10963;SDS011;5534;48.784;9.190;2022-07-29T07:10:01;2.15;;;1.95;;
10963;SDS011;5534;48.784;9.190;2022-07-29T07:12:29;1.92;;;1.70;;
10963;SDS011;5534;48.784;9.190;2022-07-29T07:14:56;3.90;;;2.20;;
10963;SDS011;5534;48.784;9.190;2022-07-29T07:17:23;2.63;;;2.38;;
10963;SDS011;5534;48.784;9.190;2022-07-29T07:19:49;3.38;;;2.20;;
10963;SDS011;5534;48.784;9.190;2022-07-29T07:22:16;2.53;;;1.77;;
10963;SDS011;5534;48.784;9.190;2022-07-29T07:24:45;2.33;;;1.85;;
10963;SDS011;5534;48.784;9.190;2022-07-29T07:27:12;2.20;;;1.83;;
10963;SDS011;5534;48.784;9.190;2022-07-29T07:29:38;3.03;;;2.55;;
10963;SDS011;5534;48.784;9.190;2022-07-29T07:32:06;2.70;;;2.50;;
10963;SDS011;5534;48.784;9.190;2022-07-29T07:34:34;1.90;;;1.80;;
10963;SDS011;5534;48.784;9.190;2022-07-29T07:37:03;2.45;;;2.00;;
10963;SDS011;5534;48.784;9.190;2022-07-29T07:39:29;4.45;;;3.63;;
10963;SDS011;5534;48.784;9.190;2022-07-29T07:41:55;2.63;;;2.10;;
10963;SDS011;5534;48.784;9.190;2022-07-29T07:44:21;3.65;;;2.03;;
10963;SDS011;5534;48.784;9.190;2022-07-29T07:46:47;2.20;;;1.98;;
10963;SDS011;5534;48.784;9.190;2022-07-29T07:49:12;2.67;;;2.10;;
10963;SDS011;5534;48.784;9.190;2022-07-29T07:51:38;5.10;;;2.10;;
10963;SDS011;5534;48.784;9.190;2022-07-29T07:54:04;3.28;;;2.10;;
10963;SDS011;5534;48.784;9.190;2022-07-29T07:56:30;3.67;;;2.17;;
10963;SDS011;5534;48.784;9.190;2022-07-29T07:58:55;3.33;;;2.00;;
10963;SDS011;5534;48.784;9.190;2022-07-29T08:01:21;3.22;;;2.38;;
10963;SDS011;5534;48.784;9.190;2022-07-29T08:03:49;6.00;;;2.47;;
10963;SDS011;5534;48.784;9.190;2022-07-29T08:06:15;4.25;;;2.67;;
10963;SDS011;5534;48.784;9.190;2022-07-29T08:08:41;3.47;;;2.42;;
10963;SDS011;5534;48.784;9.190;2022-07-29T08:11:07;3.40;;;2.10;;
10963;SDS011;5534;48.784;9.190;2022-07-29T08:13:32;3.42;;;1.90;;
10963;SDS011;5534;48.784;9.190;2022-07-29T08:15:58;4.55;;;2.22;;
10963;SDS011;5534;48.784;9.190;2022-07-29T08:18:36;3.00;;;1.90;;
10963;SDS011;5534;48.784;9.190;2022-07-29T08:21:03;3.58;;;2.00;;
10963;SDS011;5534;48.784;9.190;2022-07-29T08:23:29;2.55;;;2.33;;
10963;SDS011;5534;48.784;9.190;2022-07-29T08:26:10;2.63;;;2.00;;
10963;SDS011;5534;48.784;9.190;2022-07-29T08:28:37;3.67;;;2.22;;
10963;SDS011;5534;48.784;9.190;2022-07-29T08:31:03;3.60;;;3.28;;
10963;SDS011;5534;48.784;9.190;2022-07-29T08:33:29;6.25;;;3.13;;
10963;SDS011;5534;48.784;9.190;2022-07-29T08:35:55;2.97;;;2.17;;
10963;SDS011;5534;48.784;9.190;2022-07-29T08:38:21;3.25;;;2.40;;
10963;SDS011;5534;48.784;9.190;2022-07-29T08:40:47;2.30;;;2.10;;
10963;SDS011;5534;48.784;9.190;2022-07-29T08:43:13;3.60;;;2.20;;
10963;SDS011;5534;48.784;9.190;2022-07-29T08:45:43;3.58;;;2.55;;
10963;SDS011;5534;48.784;9.190;2022-07-29T08:48:11;8.48;;;6.80;;
10963;SDS011;5534;48.784;9.190;2022-07-29T08:50:42;2.80;;;2.20;;
10963;SDS011;5534;48.784;9.190;2022-07-29T08:53:12;3.67;;;2.35;;
10963;SDS011;5534;48.784;9.190;2022-07-29T08:55:43;3.70;;;2.47;;
10963;SDS011;5534;48.784;9.190;2022-07-29T08:58:11;4.68;;;3.03;;
10963;SDS011;5534;48.784;9.190;2022-07-29T09:00:41;5.50;;;4.10;;
10963;SDS011;5534;48.784;9.190;2022-07-29T09:03:12;2.45;;;2.22;;
10963;SDS011;5534;48.784;9.190;2022-07-29T09:05:42;2.92;;;2.30;;
10963;SDS011;5534;48.784;9.190;2022-07-29T09:08:10;3.05;;;2.30;;
10963;SDS011;5534;48.784;9.190;2022-07-29T09:10:36;4.57;;;2.40;;
10963;SDS011;5534;48.784;9.190;2022-07-29T09:13:02;5.20;;;2.63;;
10963;SDS011;5534;48.784;9.190;2022-07-29T09:15:28;5.00;;;2.20;;
10963;SDS011;5534;48.784;9.190;2022-07-29T09:17:54;2.70;;;2.40;;
10963;SDS011;5534;48.784;9.190;2022-07-29T09:20:22;2.72;;;2.10;;
10963;SDS011;5534;48.784;9.190;2022-07-29T09:22:48;5.68;;;2.63;;
10963;SDS011;5534;48.784;9.190;2022-07-29T09:25:31;5.47;;;2.65;;
10963;SDS011;5534;48.784;9.190;2022-07-29T09:28:08;5.25;;;2.35;;
10963;SDS011;5534;48.784;9.190;2022-07-29T09:30:55;4.25;;;2.58;;
10963;SDS011;5534;48.784;9.190;2022-07-29T09:33:23;4.63;;;2.40;;
10963;SDS011;5534;48.784;9.190;2022-07-29T09:36:02;5.82;;;2.67;;
10963;SDS011;5534;48.784;9.190;2022-07-29T09:38:32;3.75;;;2.33;;
10963;SDS011;5534;48.784;9.190;2022-07-29T09:41:01;4.25;;;2.40;;
10963;SDS011;5534;48.784;9.190;2022-07-29T09:43:28;3.30;;;2.25;;
10963;SDS011;5534;48.784;9.190;2022-07-29T09:45:54;3.42;;;2.60;;
10963;SDS011;5534;48.784;9.190;2022-07-29T09:48:21;4.63;;;2.70;;
10963;SDS011;5534;48.784;9.190;2022-07-29T09:50:48;3.45;;;2.55;;
10963;SDS011;5534;48.784;9.190;2022-07-29T09:53:34;4.15;;;2.30;;
10963;SDS011;5534;48.784;9.190;2022-07-29T09:56:02;6.10;;;2.90;;
10963;SDS011;5534;48.784;9.190;2022-07-29T09:58:29;3.60;;;2.47;;
10963;SDS011;5534;48.784;9.190;2022-07-29T10:00:55;5.07;;;2.75;;
10963;SDS011;5534;48.784;9.190;2022-07-29T10:03:21;4.35;;;3.75;;
10963;SDS011;5534;48.784;9.190;2022-07-29T10:06:09;3.83;;;2.88;;
10963;SDS011;5534;48.784;9.190;2022-07-29T10:08:34;3.13;;;2.50;;
10963;SDS011;5534;48.784;9.190;2022-07-29T10:11:12;4.05;;;2.42;;
10963;SDS011;5534;48.784;9.190;2022-07-29T10:13:40;2.80;;;2.55;;
10963;SDS011;5534;48.784;9.190;2022-07-29T10:16:07;7.15;;;4.63;;
10963;SDS011;5534;48.784;9.190;2022-07-29T10:18:33;5.13;;;3.10;;
10963;SDS011;5534;48.784;9.190;2022-07-29T10:20:59;4.07;;;3.00;;
10963;SDS011;5534;48.784;9.190;2022-07-29T10:23:27;3.72;;;3.33;;
10963;SDS011;5534;48.784;9.190;2022-07-29T10:25:54;2.85;;;2.60;;
10963;SDS011;5534;48.784;9.190;2022-07-29T10:28:20;5.68;;;2.85;;
10963;SDS011;5534;48.784;9.190;2022-07-29T10:30:46;3.78;;;2.67;;
10963;SDS011;5534;48.784;9.190;2022-07-29T10:36:24;3.47;;;2.92;;
10963;SDS011;5534;48.784;9.190;2022-07-29T10:39:05;3.75;;;3.15;;
10963;SDS011;5534;48.784;9.190;2022-07-29T10:41:56;4.57;;;2.58;;
10963;SDS011;5534;48.784;9.190;2022-07-29T10:44:48;6.97;;;3.20;;
10963;SDS011;5534;48.784;9.190;2022-07-29T10:47:21;5.13;;;3.13;;
10963;SDS011;5534;48.784;9.190;2022-07-29T10:49:55;6.97;;;3.30;;
10963;SDS011;5534;48.784;9.190;2022-07-29T10:55:30;8.82;;;4.53;;
10963;SDS011;5534;48.784;9.190;2022-07-29T10:58:10;5.70;;;3.72;;
10963;SDS011;5534;48.784;9.190;2022-07-29T11:00:44;6.25;;;3.72;;
10963;SDS011;5534;48.784;9.190;2022-07-29T11:06:13;10.52;;;5.80;;
10963;SDS011;5534;48.784;9.190;2022-07-29T11:08:39;10.18;;;5.03;;
10963;SDS011;5534;48.784;9.190;2022-07-29T11:16:13;5.57;;;4.80;;
10963;SDS011;5534;48.784;9.190;2022-07-29T11:21:42;12.18;;;5.50;;
10963;SDS011;5534;48.784;9.190;2022-07-29T11:24:12;7.45;;;5.15;;
10963;SDS011;5534;48.784;9.190;2022-07-29T11:26:39;10.05;;;5.78;;
10963;SDS011;5534;48.784;9.190;2022-07-29T11:29:08;8.20;;;6.07;;
10963;SDS011;5534;48.784;9.190;2022-07-29T11:31:48;9.23;;;5.70;;
10963;SDS011;5534;48.784;9.190;2022-07-29T11:39:35;5.43;;;4.50;;
10963;SDS011;5534;48.784;9.190;2022-07-29T11:47:27;6.13;;;4.10;;
10963;SDS011;5534;48.784;9.190;2022-07-29T11:49:57;4.47;;;3.90;;
10963;SDS011;5534;48.784;9.190;2022-07-29T11:52:35;5.00;;;4.05;;
10963;SDS011;5534;48.784;9.190;2022-07-29T11:55:08;6.90;;;4.13;;
10963;SDS011;5534;48.784;9.190;2022-07-29T11:57:35;7.57;;;4.50;;
10963;SDS011;5534;48.784;9.190;2022-07-29T12:00:03;5.55;;;4.88;;
10963;SDS011;5534;48.784;9.190;2022-07-29T12:02:39;6.07;;;4.90;;
10963;SDS011;5534;48.784;9.190;2022-07-29T12:05:07;6.00;;;4.88;;
10963;SDS011;5534;48.784;9.190;2022-07-29T12:07:34;4.70;;;4.22;;
10963;SDS011;5534;48.784;9.190;2022-07-29T12:10:00;5.07;;;4.57;;
10963;SDS011;5534;48.784;9.190;2022-07-29T12:12:26;6.00;;;5.22;;
10963;SDS011;5534;48.784;9.190;2022-07-29T12:14:52;7.10;;;4.65;;
10963;SDS011;5534;48.784;9.190;2022-07-29T12:17:27;7.20;;;4.47;;
10963;SDS011;5534;48.784;9.190;2022-07-29T12:19:55;4.75;;;4.13;;
10963;SDS011;5534;48.784;9.190;2022-07-29T12:22:26;5.47;;;4.22;;
10963;SDS011;5534;48.784;9.190;2022-07-29T12:25:06;4.90;;;4.15;;
10963;SDS011;5534;48.784;9.190;2022-07-29T12:27:37;4.55;;;3.40;;
10963;SDS011;5534;48.784;9.190;2022-07-29T12:30:04;3.58;;;3.28;;
10963;SDS011;5534;48.784;9.190;2022-07-29T12:35:09;3.03;;;2.67;;
10963;SDS011;5534;48.784;9.190;2022-07-29T12:37:38;3.33;;;3.03;;
10963;SDS011;5534;48.784;9.190;2022-07-29T12:40:06;3.90;;;3.10;;
10963;SDS011;5534;48.784;9.190;2022-07-29T12:42:34;3.83;;;3.13;;
10963;SDS011;5534;48.784;9.190;2022-07-29T12:45:00;5.13;;;3.17;;
10963;SDS011;5534;48.784;9.190;2022-07-29T12:47:26;2.90;;;2.65;;
10963;SDS011;5534;48.784;9.190;2022-07-29T12:50:06;4.88;;;3.50;;
10963;SDS011;5534;48.784;9.190;2022-07-29T12:52:37;7.00;;;3.67;;
10963;SDS011;5534;48.784;9.190;2022-07-29T12:55:03;4.25;;;3.80;;
10963;SDS011;5534;48.784;9.190;2022-07-29T12:57:30;4.78;;;3.50;;
10963;SDS011;5534;48.784;9.190;2022-07-29T13:00:00;3.65;;;3.15;;
10963;SDS011;5534;48.784;9.190;2022-07-29T13:02:29;3.58;;;2.90;;
10963;SDS011;5534;48.784;9.190;2022-07-29T13:04:56;3.95;;;3.03;;
10963;SDS011;5534;48.784;9.190;2022-07-29T13:07:24;3.97;;;3.15;;
10963;SDS011;5534;48.784;9.190;2022-07-29T13:09:54;3.35;;;;;
10963;SDS011;5534;48.784;9.190;2022-07-29T13:13:00;5.35;;;3.20;;
10963;SDS011;5534;48.784;9.190;2022-07-29T13:15:28;4.88;;;3.20;;
10963;SDS011;5534;48.784;9.190;2022-07-29T13:17:55;4.53;;;3.40;;
10963;SDS011;5534;48.784;9.190;2022-07-29T13:20:25;3.90;;;3.13;;
10963;SDS011;5534;48.784;9.190;2022-07-29T13:22:57;8.35;;;4.00;;
10963;SDS011;5534;48.784;9.190;2022-07-29T13:25:25;6.10;;;3.80;;
10963;SDS011;5534;48.784;9.190;2022-07-29T13:27:52;6.95;;;4.00;;
10963;SDS011;5534;48.784;9.190;2022-07-29T13:30:19;6.22;;;3.70;;
10963;SDS011;5534;48.784;9.190;2022-07-29T13:32:46;5.43;;;3.15;;
10963;SDS011;5534;48.784;9.190;2022-07-29T13:35:12;9.13;;;4.05;;
10963;SDS011;5534;48.784;9.190;2022-07-29T13:37:38;9.02;;;4.00;;
10963;SDS011;5534;48.784;9.190;2022-07-29T13:40:06;6.00;;;4.35;;
10963;SDS011;5534;48.784;9.190;2022-07-29T13:42:33;4.00;;;3.60;;
10963;SDS011;5534;48.784;9.190;2022-07-29T13:44:59;4.47;;;3.58;;
10963;SDS011;5534;48.784;9.190;2022-07-29T13:47:25;5.53;;;4.05;;
10963;SDS011;5534;48.784;9.190;2022-07-29T13:49:51;4.60;;;3.75;;
10963;SDS011;5534;48.784;9.190;2022-07-29T13:52:18;8.25;;;3.92;;
10963;SDS011;5534;48.784;9.190;2022-07-29T13:54:45;4.60;;;3.58;;
10963;SDS011;5534;48.784;9.190;2022-07-29T13:57:11;4.53;;;4.13;;
10963;SDS011;5534;48.784;9.190;2022-07-29T13:59:38;5.25;;;3.58;;
10963;SDS011;5534;48.784;9.190;2022-07-29T14:02:10;7.35;;;4.50;;
10963;SDS011;5534;48.784;9.190;2022-07-29T14:04:37;4.95;;;4.07;;
10963;SDS011;5534;48.784;9.190;2022-07-29T14:07:03;4.88;;;3.97;;
10963;SDS011;5534;48.784;9.190;2022-07-29T14:09:29;5.28;;;4.20;;
10963;SDS011;5534;48.784;9.190;2022-07-29T14:11:55;5.60;;;4.50;;
10963;SDS011;5534;48.784;9.190;2022-07-29T14:14:21;4.28;;;3.88;;
10963;SDS011;5534;48.784;9.190;2022-07-29T14:16:47;4.15;;;3.75;;
10963;SDS011;5534;48.784;9.190;2022-07-29T14:19:13;4.90;;;4.40;;
10963;SDS011;5534;48.784;9.190;2022-07-29T14:21:39;4.90;;;3.75;;
10963;SDS011;5534;48.784;9.190;2022-07-29T14:24:05;4.38;;;3.95;;
10963;SDS011;5534;48.784;9.190;2022-07-29T14:26:31;8.60;;;4.05;;
10963;SDS011;5534;48.784;9.190;2022-07-29T14:28:57;4.65;;;4.25;;
10963;SDS011;5534;48.784;9.190;2022-07-29T14:31:23;5.38;;;4.50;;
10963;SDS011;5534;48.784;9.190;2022-07-29T14:33:48;3.85;;;3.45;;
10963;SDS011;5534;48.784;9.190;2022-07-29T14:36:14;6.00;;;4.15;;
10963;SDS011;5534;48.784;9.190;2022-07-29T14:38:40;6.20;;;4.40;;
10963;SDS011;5534;48.784;9.190;2022-07-29T14:41:06;5.82;;;4.45;;
10963;SDS011;5534;48.784;9.190;2022-07-29T14:43:33;7.15;;;4.57;;
10963;SDS011;5534;48.784;9.190;2022-07-29T14:45:59;5.75;;;4.50;;
10963;SDS011;5534;48.784;9.190;2022-07-29T14:48:26;5.13;;;4.18;;
10963;SDS011;5534;48.784;9.190;2022-07-29T14:50:52;5.95;;;4.80;;
10963;SDS011;5534;48.784;9.190;2022-07-29T14:53:17;6.95;;;4.38;;
10963;SDS011;5534;48.784;9.190;2022-07-29T14:55:43;4.28;;;3.83;;
10963;SDS011;5534;48.784;9.190;2022-07-29T14:58:09;5.03;;;4.18;;
10963;SDS011;5534;48.784;9.190;2022-07-29T15:00:35;4.75;;;4.35;;
10963;SDS011;5534;48.784;9.190;2022-07-29T15:03:02;4.75;;;4.25;;
10963;SDS011;5534;48.784;9.190;2022-07-29T15:05:28;5.50;;;3.90;;
10963;SDS011;5534;48.784;9.190;2022-07-29T15:07:57;5.55;;;4.50;;
10963;SDS011;5534;48.784;9.190;2022-07-29T15:10:24;6.05;;;4.28;;
10963;SDS011;5534;48.784;9.190;2022-07-29T15:12:52;7.72;;;4.90;;
10963;SDS011;5534;48.784;9.190;2022-07-29T15:15:18;4.97;;;4.18;;
10963;SDS011;5534;48.784;9.190;2022-07-29T15:17:44;4.75;;;3.85;;
10963;SDS011;5534;48.784;9.190;2022-07-29T15:20:11;5.63;;;4.35;;
10963;SDS011;5534;48.784;9.190;2022-07-29T15:22:37;4.90;;;4.22;;
10963;SDS011;5534;48.784;9.190;2022-07-29T15:25:04;7.55;;;4.40;;
10963;SDS011;5534;48.784;9.190;2022-07-29T15:27:30;4.85;;;4.35;;
10963;SDS011;5534;48.784;9.190;2022-07-29T15:29:56;3.60;;;3.30;;
10963;SDS011;5534;48.784;9.190;2022-07-29T15:32:22;4.40;;;4.00;;
10963;SDS011;5534;48.784;9.190;2022-07-29T15:34:48;6.68;;;4.20;;
10963;SDS011;5534;48.784;9.190;2022-07-29T15:37:14;3.97;;;3.33;;
10963;SDS011;5534;48.784;9.190;2022-07-29T15:39:40;4.68;;;4.03;;
10963;SDS011;5534;48.784;9.190;2022-07-29T15:42:06;4.30;;;3.90;;
10963;SDS011;5534;48.784;9.190;2022-07-29T15:44:31;4.43;;;4.03;;
10963;SDS011;5534;48.784;9.190;2022-07-29T15:46:57;5.95;;;4.60;;
10963;SDS011;5534;48.784;9.190;2022-07-29T15:49:33;10.07;;;4.90;;
10963;SDS011;5534;48.784;9.190;2022-07-29T15:52:03;6.63;;;4.55;;
10963;SDS011;5534;48.784;9.190;2022-07-29T15:54:34;4.97;;;4.22;;
10963;SDS011;5534;48.784;9.190;2022-07-29T15:57:01;8.85;;;6.15;;